createdAt,value
2019-02-23T00:00:42.925Z,2.07
2019-02-23T00:03:50.361Z,1.98
2019-02-23T00:06:57.655Z,1.97
2019-02-23T00:10:06.085Z,1.97
2019-02-23T00:13:13.913Z,1.89
2019-02-23T00:16:21.957Z,1.74
2019-02-23T00:19:29.385Z,1.65
2019-02-23T00:22:36.667Z,1.68
2019-02-23T00:25:44.202Z,1.42
2019-02-23T00:28:51.636Z,1.50
2019-02-23T00:31:59.313Z,1.49
2019-02-23T00:35:06.694Z,1.52
2019-02-23T00:38:14.374Z,1.49
2019-02-23T00:41:21.673Z,1.33
2019-02-23T00:44:29.043Z,1.34
2019-02-23T00:47:36.590Z,1.11
2019-02-23T00:50:43.975Z,1.10
2019-02-23T00:53:51.143Z,1.16
2019-02-23T00:56:58.564Z,1.22
2019-02-23T01:00:08.400Z,1.18
2019-02-23T01:03:15.912Z,1.13
2019-02-23T01:06:23.512Z,0.92
2019-02-23T01:09:31.130Z,0.82
2019-02-23T01:12:38.794Z,0.71
2019-02-23T01:15:46.108Z,0.69
2019-02-23T01:18:53.367Z,0.47
2019-02-23T01:22:00.775Z,0.44
2019-02-23T01:25:08.859Z,0.61
2019-02-23T01:28:16.550Z,0.38
2019-02-23T01:31:23.730Z,0.32
2019-02-23T01:34:31.294Z,0.23
2019-02-23T01:37:38.780Z,0.44
2019-02-23T01:40:46.308Z,0.51
2019-02-23T01:43:53.584Z,0.51
2019-02-23T01:47:01.275Z,0.62
2019-02-23T01:50:08.545Z,0.58
2019-02-23T01:53:16.363Z,0.56
2019-02-23T01:56:23.974Z,0.41
2019-02-23T01:59:31.273Z,0.41
2019-02-23T02:02:47.645Z,0.41
2019-02-23T02:05:56.070Z,0.23
2019-02-23T02:09:04.274Z,0.08
2019-02-23T02:12:13.812Z,0.11
2019-02-23T02:15:20.958Z,0.24
2019-02-23T02:18:28.618Z,0.10
2019-02-23T02:21:36.434Z,-0.10
2019-02-23T02:24:43.815Z,0.04
2019-02-23T02:27:51.105Z,0.14
2019-02-23T02:30:58.685Z,0.13
2019-02-23T02:34:08.612Z,0.12
2019-02-23T02:37:16.166Z,0.03
2019-02-23T02:40:23.522Z,-0.01
2019-02-23T02:43:30.688Z,0.04
2019-02-23T02:46:38.513Z,0.02
2019-02-23T02:49:45.699Z,0.00
2019-02-23T02:52:53.104Z,-0.16
2019-02-23T02:56:00.280Z,-0.10
2019-02-23T02:59:07.442Z,-0.15
2019-02-23T03:02:15.009Z,-0.28
2019-02-23T03:05:22.742Z,-0.30
2019-02-23T03:08:29.997Z,-0.34
2019-02-23T03:11:37.732Z,-0.35
2019-02-23T03:14:45.168Z,-0.43
2019-02-23T03:17:52.653Z,-0.57
2019-02-23T03:21:00.084Z,-0.41
2019-02-23T03:24:08.046Z,-0.39
2019-02-23T03:27:15.238Z,-0.48
2019-02-23T03:30:22.710Z,-0.52
2019-02-23T03:33:30.343Z,-0.56
2019-02-23T03:36:37.593Z,-0.55
2019-02-23T03:39:44.762Z,-0.51
2019-02-23T03:42:52.227Z,-0.70
2019-02-23T03:46:00.026Z,-0.85
2019-02-23T03:49:07.461Z,-0.72
2019-02-23T03:52:14.895Z,-0.62
2019-02-23T03:55:22.072Z,-0.74
2019-02-23T03:58:29.716Z,-0.86
2019-02-23T04:01:37.152Z,-0.80
2019-02-23T04:04:45.467Z,-0.90
2019-02-23T04:07:52.626Z,-1.00
2019-02-23T04:10:59.913Z,-1.05
2019-02-23T04:14:07.380Z,-1.22
2019-02-23T04:17:14.922Z,-1.13
2019-02-23T04:20:22.363Z,-1.19
2019-02-23T04:23:30.009Z,-1.07
2019-02-23T04:26:37.168Z,-1.14
2019-02-23T04:29:46.915Z,-1.11
2019-02-23T04:32:53.803Z,-1.39
2019-02-23T04:36:01.703Z,-1.44
2019-02-23T04:39:09.073Z,-1.48
2019-02-23T04:42:16.735Z,-1.40
2019-02-23T04:45:24.107Z,-1.50
2019-02-23T04:48:31.624Z,-1.59
2019-02-23T04:51:38.775Z,-1.61
2019-02-23T04:54:46.358Z,-1.64
2019-02-23T04:57:53.757Z,-1.58
2019-02-23T05:01:01.122Z,-1.75
2019-02-23T05:04:08.530Z,-1.87
2019-02-23T05:07:15.786Z,-1.91
2019-02-23T05:10:23.142Z,-1.94
2019-02-23T05:13:30.664Z,-1.95
2019-02-23T05:16:37.859Z,-2.06
2019-02-23T05:19:45.298Z,-2.12
2019-02-23T05:22:52.568Z,-2.10
2019-02-23T05:25:59.733Z,-1.89
2019-02-23T05:29:07.957Z,-2.01
2019-02-23T05:32:15.983Z,-2.13
2019-02-23T05:35:23.954Z,-2.07
2019-02-23T05:38:31.814Z,-2.25
2019-02-23T05:41:39.507Z,-2.41
2019-02-23T05:44:46.867Z,-2.56
2019-02-23T05:47:56.855Z,-2.58
2019-02-23T05:51:04.555Z,-2.63
2019-02-23T05:54:12.202Z,-2.69
2019-02-23T05:57:20.397Z,-2.74
2019-02-23T06:00:28.044Z,-2.67
2019-02-23T06:03:35.196Z,-2.70
2019-02-23T06:06:42.453Z,-2.77
2019-02-23T06:09:49.694Z,-2.51
2019-02-23T06:12:57.406Z,-2.52
2019-02-23T06:16:05.149Z,-2.65
2019-02-23T06:19:12.662Z,-2.51
2019-02-23T06:22:20.154Z,-2.66
2019-02-23T06:25:27.421Z,-2.52
2019-02-23T06:28:34.949Z,-2.39
2019-02-23T06:31:42.213Z,-2.43
2019-02-23T06:34:50.236Z,-2.52
2019-02-23T06:37:57.972Z,-2.33
2019-02-23T06:41:05.491Z,-2.19
2019-02-23T06:44:12.741Z,-2.27
2019-02-23T06:47:19.996Z,-2.26
2019-02-23T06:50:27.489Z,-2.18
2019-02-23T06:53:34.988Z,-2.20
2019-02-23T06:56:42.723Z,-2.00
2019-02-23T06:59:50.083Z,-1.90
2019-02-23T07:02:57.603Z,-1.61
2019-02-23T07:06:04.791Z,-1.29
2019-02-23T07:09:12.060Z,-1.00
2019-02-23T07:12:19.652Z,-0.95
2019-02-23T07:15:27.615Z,-0.88
2019-02-23T07:18:34.773Z,-0.74
2019-02-23T07:21:42.241Z,-0.33
2019-02-23T07:24:49.868Z,0.02
2019-02-23T07:27:57.750Z,0.30
2019-02-23T07:31:07.497Z,0.26
2019-02-23T07:34:15.226Z,0.09
2019-02-23T07:37:23.074Z,0.06
2019-02-23T07:40:30.361Z,0.07
2019-02-23T07:43:38.097Z,0.28
2019-02-23T07:46:45.512Z,0.53
2019-02-23T07:49:52.680Z,0.65
2019-02-23T07:53:00.203Z,0.56
2019-02-23T07:56:07.757Z,0.61
2019-02-23T07:59:16.086Z,0.63
2019-02-23T08:02:25.777Z,0.59
2019-02-23T08:05:33.158Z,0.59
2019-02-23T08:08:40.416Z,0.68
2019-02-23T08:11:47.679Z,0.84
2019-02-23T08:14:55.078Z,1.12
2019-02-23T08:18:03.133Z,1.10
2019-02-23T08:21:10.749Z,1.18
2019-02-23T08:24:18.102Z,1.13
2019-02-23T08:27:25.440Z,1.26
2019-02-23T08:30:32.847Z,1.00
2019-02-23T08:33:40.238Z,1.05
2019-02-23T08:36:48.041Z,1.19
2019-02-23T08:39:55.644Z,1.08
2019-02-23T08:43:03.099Z,1.09
2019-02-23T08:46:10.565Z,1.25
2019-02-23T08:49:18.082Z,1.35
2019-02-23T08:52:32.368Z,1.36
2019-02-23T08:55:40.180Z,1.44
2019-02-23T08:58:47.582Z,1.50
2019-02-23T09:01:55.137Z,1.51
2019-02-23T09:08:11.950Z,1.60
2019-02-23T09:11:19.462Z,1.90
2019-02-23T09:14:27.352Z,1.86
2019-02-23T09:17:35.343Z,1.95
2019-02-23T09:20:42.782Z,1.67
2019-02-23T09:23:50.877Z,1.54
2019-02-23T09:26:58.340Z,1.53
2019-02-23T09:30:07.754Z,1.66
2019-02-23T09:33:15.853Z,1.99
2019-02-23T09:36:24.047Z,2.04
2019-02-23T09:39:32.197Z,1.72
2019-02-23T09:42:40.016Z,1.67
2019-02-23T09:45:47.519Z,1.89
2019-02-23T09:48:56.385Z,2.19
2019-02-23T09:52:04.251Z,2.49
2019-02-23T09:55:12.228Z,2.48
2019-02-23T09:58:20.420Z,2.44
2019-02-23T10:01:27.785Z,2.49
2019-02-23T10:04:35.532Z,2.55
2019-02-23T10:07:42.708Z,2.75
2019-02-23T10:10:50.225Z,2.62
2019-02-23T10:13:57.847Z,2.58
2019-02-23T10:17:05.715Z,2.61
2019-02-23T10:20:13.369Z,2.89
2019-02-23T10:23:22.239Z,3.23
2019-02-23T10:26:30.864Z,3.30
2019-02-23T10:29:38.638Z,3.30
2019-02-23T10:32:46.203Z,3.46
2019-02-23T10:35:53.813Z,3.41
2019-02-23T10:39:02.283Z,3.57
2019-02-23T10:42:09.559Z,3.69
2019-02-23T10:45:17.106Z,3.74
2019-02-23T10:48:24.576Z,3.80
2019-02-23T10:51:32.479Z,3.46
2019-02-23T10:54:40.021Z,3.54
2019-02-23T10:57:48.246Z,3.60
2019-02-23T11:00:56.061Z,3.56
2019-02-23T11:04:03.483Z,3.66
2019-02-23T11:07:11.391Z,3.64
2019-02-23T11:10:19.299Z,3.78
2019-02-23T11:13:27.105Z,3.73
2019-02-23T11:16:35.123Z,3.60
2019-02-23T11:19:42.287Z,3.59
2019-02-23T11:22:49.793Z,3.73
2019-02-23T11:25:57.419Z,3.77
2019-02-23T11:29:07.965Z,3.49
2019-02-23T11:32:15.898Z,3.57
2019-02-23T11:35:23.694Z,3.68
2019-02-23T11:38:31.730Z,3.60
2019-02-23T11:41:39.254Z,3.63
2019-02-23T11:44:47.427Z,3.49
2019-02-23T11:47:54.965Z,3.48
2019-02-23T11:51:02.885Z,3.68
2019-02-23T11:54:10.437Z,3.79
2019-02-23T11:57:18.397Z,3.72
2019-02-23T12:00:26.023Z,3.78
2019-02-23T12:03:33.877Z,3.85
2019-02-23T12:06:41.413Z,3.91
2019-02-23T12:09:49.210Z,3.89
2019-02-23T12:12:57.635Z,3.97
2019-02-23T12:16:05.538Z,4.06
2019-02-23T12:19:12.829Z,4.03
2019-02-23T12:22:20.950Z,4.05
2019-02-23T12:25:28.654Z,4.09
2019-02-23T12:28:36.317Z,4.21
2019-02-23T12:31:44.083Z,4.17
2019-02-23T12:34:51.936Z,4.19
2019-02-23T12:37:59.291Z,3.96
2019-02-23T12:41:11.578Z,3.85
2019-02-23T12:44:18.880Z,3.83
2019-02-23T12:47:26.532Z,3.67
2019-02-23T12:50:33.936Z,3.76
2019-02-23T12:53:41.369Z,3.83
2019-02-23T12:56:48.783Z,3.88
2019-02-23T12:59:56.208Z,4.10
2019-02-23T13:03:03.932Z,4.18
2019-02-23T13:06:11.705Z,4.26
2019-02-23T13:09:28.697Z,4.23
2019-02-23T13:13:29.165Z,4.16
2019-02-23T13:17:28.365Z,4.05
2019-02-23T13:21:22.943Z,4.04
2019-02-23T13:24:55.142Z,3.99
2019-02-23T13:29:08.010Z,4.00
2019-02-23T13:32:53.214Z,3.85
2019-02-23T13:37:01.832Z,3.89
2019-02-23T13:40:53.476Z,3.97
2019-02-23T13:44:23.199Z,4.10
2019-02-23T13:48:41.184Z,4.17
2019-02-23T13:53:01.132Z,4.27
2019-02-23T13:57:06.367Z,4.14
2019-02-23T14:00:57.158Z,3.98
2019-02-23T14:05:08.981Z,4.03
2019-02-23T14:09:15.983Z,4.03
2019-02-23T14:13:27.064Z,4.09
2019-02-23T14:17:20.593Z,4.17
2019-02-23T14:21:38.139Z,4.23
2019-02-23T14:26:09.792Z,4.23
2019-02-23T14:29:46.633Z,4.07
2019-02-23T14:33:25.650Z,3.96
2019-02-23T14:37:05.583Z,3.98
2019-02-23T14:41:07.522Z,4.02
2019-02-23T14:44:49.533Z,4.06
2019-02-23T14:49:01.500Z,3.99
2019-02-23T14:53:03.340Z,4.22
2019-02-23T14:56:25.485Z,4.28
2019-02-23T15:00:10.813Z,4.25
2019-02-23T15:04:28.197Z,4.22
2019-02-23T15:08:31.127Z,4.05
2019-02-23T15:12:30.242Z,3.91
2019-02-23T15:16:19.362Z,3.96
2019-02-23T15:20:07.675Z,4.01
2019-02-23T15:24:14.424Z,4.07
2019-02-23T15:28:01.081Z,3.99
2019-02-23T15:31:45.688Z,3.92
2019-02-23T15:35:20.979Z,3.99
2019-02-23T15:40:03.754Z,3.86
2019-02-23T15:44:02.889Z,3.70
2019-02-23T15:50:26.334Z,3.37
2019-02-23T15:53:33.666Z,3.40
2019-02-23T15:56:42.936Z,3.37
2019-02-23T15:59:50.575Z,3.28
2019-02-23T16:02:58.288Z,3.29
2019-02-23T16:06:06.162Z,3.14
2019-02-23T16:09:14.891Z,3.12
2019-02-23T16:12:23.024Z,3.17
2019-02-23T16:15:30.400Z,3.08
2019-02-23T16:21:54.101Z,2.88
2019-02-23T16:25:02.074Z,2.81
2019-02-23T16:28:11.284Z,2.53
2019-02-23T16:31:19.011Z,2.49
2019-02-23T16:34:26.313Z,2.38
2019-02-23T16:37:33.929Z,2.21
2019-02-23T16:40:41.113Z,2.08
2019-02-23T16:43:48.689Z,1.98
2019-02-23T16:46:56.516Z,1.66
2019-02-23T16:50:04.708Z,1.74
2019-02-23T16:53:12.227Z,1.68
2019-02-23T16:56:19.772Z,1.61
2019-02-23T16:59:27.410Z,1.44
2019-02-23T17:02:36.060Z,1.33
2019-02-23T17:05:44.103Z,1.30
2019-02-23T17:08:52.452Z,1.19
2019-02-23T17:12:01.865Z,1.09
2019-02-23T17:15:10.631Z,0.84
2019-02-23T17:18:18.726Z,0.93
2019-02-23T17:21:26.647Z,0.91
2019-02-23T17:24:35.147Z,0.79
2019-02-23T17:27:42.941Z,0.79
2019-02-23T17:30:51.312Z,0.69
2019-02-23T17:33:58.672Z,0.63
2019-02-23T17:37:06.657Z,0.57
2019-02-23T17:40:14.778Z,0.53
2019-02-23T17:43:22.787Z,0.48
2019-02-23T17:46:31.707Z,0.34
2019-02-23T17:49:39.901Z,0.39
2019-02-23T17:52:47.787Z,0.34
2019-02-23T17:55:55.798Z,0.15
2019-02-23T17:59:03.142Z,0.23
2019-02-23T18:02:10.735Z,0.16
2019-02-23T18:05:18.734Z,0.03
2019-02-23T18:08:26.548Z,0.12
2019-02-23T18:11:34.157Z,0.14
2019-02-23T18:14:42.267Z,0.02
2019-02-23T18:17:50.120Z,-0.07
2019-02-23T18:20:57.650Z,-0.18
2019-02-23T18:24:06.542Z,-0.15
2019-02-23T18:27:14.807Z,-0.35
2019-02-23T18:30:22.451Z,-0.40
2019-02-23T18:33:30.299Z,-0.38
2019-02-23T18:36:38.919Z,-0.40
2019-02-23T18:39:47.238Z,-0.30
2019-02-23T18:42:55.182Z,-0.47
2019-02-23T18:46:02.939Z,-0.52
2019-02-23T18:49:11.387Z,-0.45
2019-02-23T18:52:18.979Z,-0.50
2019-02-23T18:55:26.750Z,-0.72
2019-02-23T18:58:35.045Z,-0.56
2019-02-23T19:01:42.986Z,-0.61
2019-02-23T19:04:53.225Z,-0.60
2019-02-23T19:08:01.347Z,-0.74
2019-02-23T19:11:09.502Z,-0.74
2019-02-23T19:14:17.221Z,-0.64
2019-02-23T19:17:24.709Z,-0.81
2019-02-23T19:20:32.570Z,-0.91
2019-02-23T19:23:40.368Z,-0.96
2019-02-23T19:26:48.231Z,-0.98
2019-02-23T19:29:55.825Z,-0.99
2019-02-23T19:33:03.327Z,-0.86
2019-02-23T19:36:10.695Z,-0.80
2019-02-23T19:39:18.495Z,-0.85
2019-02-23T19:42:25.848Z,-0.85
2019-02-23T19:45:33.535Z,-0.93
2019-02-23T19:48:41.465Z,-1.07
2019-02-23T19:51:48.952Z,-0.88
2019-02-23T19:54:56.556Z,-0.93
2019-02-23T19:58:04.359Z,-1.07
2019-02-23T20:01:11.690Z,-1.02
2019-02-23T20:04:19.131Z,-1.15
2019-02-23T20:07:27.268Z,-1.11
2019-02-23T20:10:34.672Z,-1.11
2019-02-23T20:13:43.691Z,-1.14
2019-02-23T20:16:51.377Z,-1.28
2019-02-23T20:19:59.759Z,-1.31
2019-02-23T20:23:07.835Z,-1.39
2019-02-23T20:26:16.543Z,-1.42
2019-02-23T20:29:24.743Z,-1.45
2019-02-23T20:32:32.667Z,-1.54
2019-02-23T20:35:40.636Z,-1.58
2019-02-23T20:38:48.460Z,-1.74
2019-02-23T20:41:55.868Z,-1.67
2019-02-23T20:45:03.520Z,-1.64
2019-02-23T20:48:10.875Z,-1.57
2019-02-23T20:51:18.592Z,-1.72
2019-02-23T20:54:26.046Z,-1.82
2019-02-23T20:57:33.378Z,-1.98
2019-02-23T21:00:40.753Z,-1.98
2019-02-23T21:03:48.351Z,-2.05
2019-02-23T21:06:55.623Z,-2.06
2019-02-23T21:10:04.203Z,-2.14
2019-02-23T21:13:11.976Z,-2.21
2019-02-23T21:16:19.478Z,-2.08
2019-02-23T21:19:27.762Z,-1.93
2019-02-23T21:22:35.803Z,-2.13
2019-02-23T21:25:43.828Z,-2.29
2019-02-23T21:28:51.922Z,-2.39
2019-02-23T21:32:00.334Z,-2.50
2019-02-23T21:35:09.704Z,-2.48
2019-02-23T21:38:17.395Z,-2.50
2019-02-23T21:41:25.265Z,-2.46
2019-02-23T21:44:32.981Z,-2.48
2019-02-23T21:47:40.686Z,-2.56
2019-02-23T21:50:48.742Z,-2.52
2019-02-23T21:53:56.639Z,-2.41
2019-02-23T21:57:04.585Z,-2.41
2019-02-23T22:00:12.047Z,-2.62
2019-02-23T22:03:19.520Z,-2.63
2019-02-23T22:06:27.806Z,-2.56
2019-02-23T22:09:36.745Z,-2.55
2019-02-23T22:12:44.513Z,-2.44
2019-02-23T22:15:51.911Z,-2.55
2019-02-23T22:18:59.531Z,-2.62
2019-02-23T22:22:07.313Z,-2.63
2019-02-23T22:25:14.745Z,-2.62
2019-02-23T22:28:21.995Z,-2.67
2019-02-23T22:31:29.605Z,-2.69
2019-02-23T22:34:37.139Z,-2.67
2019-02-23T22:37:44.545Z,-2.62
2019-02-23T22:40:51.993Z,-2.54
2019-02-23T22:43:59.424Z,-2.56
2019-02-23T22:47:07.119Z,-2.68
2019-02-23T22:50:14.474Z,-2.77
2019-02-23T22:53:21.683Z,-2.48
2019-02-23T22:56:28.932Z,-2.72
2019-02-23T22:59:36.377Z,-2.88
2019-02-23T23:02:43.867Z,-2.78
2019-02-23T23:05:51.636Z,-2.54
2019-02-23T23:08:58.784Z,-2.55
2019-02-23T23:12:06.202Z,-2.87
2019-02-23T23:15:13.465Z,-3.08
2019-02-23T23:18:20.823Z,-3.12
2019-02-23T23:21:28.711Z,-2.81
2019-02-23T23:24:36.413Z,-2.98
2019-02-23T23:27:49.368Z,-3.17
2019-02-23T23:30:53.450Z,-3.16
2019-02-23T23:34:00.955Z,-3.38
2019-02-23T23:37:08.388Z,-3.25
2019-02-23T23:40:15.536Z,-3.11
2019-02-23T23:43:22.690Z,-3.36
2019-02-23T23:46:29.839Z,-3.55
2019-02-23T23:49:37.308Z,-3.58
2019-02-23T23:52:45.038Z,-3.50
2019-02-23T23:55:52.934Z,-3.47
2019-02-23T23:59:02.605Z,-3.39
